Time;durP1;ratioP1;P1;durP2;ratioP2;P2;SDS_P1;SDS_P2;PMS_P1;PMS_P2;Temp;Humidity;BMP_temperature;BMP_pressure;BME280_temperature;BME280_humidity;BME280_pressure;Samples;Min_cycle;Max_cycle;Signal;HPM_P1;HPM_P2
2023/03/17 00:01:54;;;;;;;4.03;2.00;;;10.50;60.00;;;9.77;47.49;99891.00;5061270;28;20039;-84
2023/03/17 00:04:25;;;;;;;4.88;2.15;;;10.50;60.50;;;9.79;47.24;99896.09;5044578;28;20049;-84
2023/03/17 00:06:52;;;;;;;4.43;1.95;;;10.60;60.10;;;9.79;47.63;99901.41;5036824;28;20120;-83
2023/03/17 00:09:21;;;;;;;5.95;2.25;;;10.60;60.80;;;9.82;47.33;99910.81;5034803;28;20041;-83
2023/03/17 00:11:49;;;;;;;4.20;2.10;;;10.60;60.60;;;9.80;47.61;99900.38;5046413;28;20141;-84
2023/03/17 00:14:16;;;;;;;4.25;2.22;;;10.50;60.70;;;9.79;47.67;99898.75;5041522;28;20045;-83
2023/03/17 00:16:48;;;;;;;5.85;2.42;;;10.60;60.80;;;9.79;47.50;99904.06;5038677;28;20037;-83
2023/03/17 00:19:17;;;;;;;4.15;1.98;;;10.70;60.80;;;9.79;47.40;99907.56;5057589;28;20049;-83
2023/03/17 00:21:45;;;;;;;5.15;2.53;;;10.60;60.40;;;9.81;47.24;99918.00;5042680;28;20112;-83
2023/03/17 00:24:14;;;;;;;5.38;2.17;;;10.60;60.20;;;9.83;47.60;99925.75;5029782;28;20045;-83
2023/03/17 00:26:42;;;;;;;6.00;2.10;;;10.60;60.60;;;9.83;47.67;99925.75;5028479;28;20056;-83
2023/03/17 00:29:09;;;;;;;6.18;2.08;;;10.60;60.40;;;9.84;47.25;99932.72;5050215;28;20068;-84
2023/03/17 00:31:37;;;;;;;5.00;1.90;;;10.60;60.10;;;9.85;46.86;99931.66;5047983;28;20051;-83
2023/03/17 00:34:06;;;;;;;5.15;2.03;;;10.60;59.60;;;9.87;47.15;99926.97;5035444;28;20073;-84
2023/03/17 00:36:34;;;;;;;6.05;2.22;;;10.60;59.80;;;9.89;46.94;99925.69;5033673;28;20041;-83
2023/03/17 00:39:12;;;;;;;4.88;1.92;;;10.70;59.80;;;9.89;46.68;99932.88;5044205;28;20100;-83
2023/03/17 00:41:40;;;;;;;6.18;1.88;;;10.70;59.50;;;9.92;46.75;99940.44;5028747;28;20092;-84
2023/03/17 00:44:07;;;;;;;5.60;2.05;;;10.70;59.50;;;9.92;46.73;99949.22;5049059;28;20047;-84
2023/03/17 00:46:36;;;;;;;5.22;1.88;;;10.70;59.50;;;9.95;46.71;99947.97;5036938;28;20130;-83
2023/03/17 00:49:10;;;;;;;5.30;1.83;;;10.80;59.60;;;9.97;46.50;99948.56;5054426;28;20056;-83
2023/03/17 00:51:40;;;;;;;4.18;1.70;;;10.70;59.30;;;9.96;46.90;99946.97;5028056;28;20045;-83
2023/03/17 00:54:10;;;;;;;6.28;2.22;;;10.70;59.90;;;9.95;46.46;99945.31;5045096;28;20043;-83
2023/03/17 00:56:40;;;;;;;4.68;2.05;;;10.70;59.30;;;9.94;46.46;99936.50;5027962;28;20052;-83
2023/03/17 00:59:21;;;;;;;5.15;2.20;;;10.80;59.20;;;9.96;46.70;99921.13;5045853;28;20114;-83
2023/03/17 01:01:49;;;;;;;6.75;2.13;;;10.70;59.60;;;9.97;46.64;99919.28;5031212;28;20069;-83
2023/03/17 01:04:16;;;;;;;4.88;1.70;;;10.80;59.20;;;9.99;46.70;99909.19;5029909;28;20060;-84
2023/03/17 01:06:44;;;;;;;4.30;1.85;;;10.70;59.50;;;9.98;46.48;99908.38;5028170;28;20055;-83
2023/03/17 01:09:15;;;;;;;4.00;2.00;;;10.70;59.10;;;9.98;46.44;99902.25;5043580;28;20551;-83
2023/03/17 01:11:43;;;;;;;6.00;1.88;;;10.70;59.30;;;9.98;46.70;99907.56;5047057;28;20172;-84
2023/03/17 01:14:10;;;;;;;4.55;2.00;;;10.70;59.50;;;9.97;46.36;99908.63;5032599;28;20051;-84
2023/03/17 01:16:38;;;;;;;5.18;2.03;;;10.70;59.10;;;9.97;46.45;99903.28;5047094;28;20517;-84
2023/03/17 01:19:06;;;;;;;5.03;2.30;;;10.90;59.30;;;9.98;46.92;99894.25;5047204;28;20040;-84
2023/03/17 01:21:33;;;;;;;5.55;2.35;;;10.70;59.80;;;9.98;46.75;99897.72;5029258;28;20103;-84
2023/03/17 01:24:01;;;;;;;5.72;2.15;;;10.70;59.60;;;9.98;46.42;99899.59;5031991;28;20049;-84
2023/03/17 01:26:30;;;;;;;4.82;2.38;;;10.70;59.20;;;9.94;46.76;99901.88;5046738;28;20100;-84
2023/03/17 01:28:57;;;;;;;6.63;1.98;;;10.70;59.70;;;9.95;46.63;99897.34;5040466;28;20493;-83
2023/03/17 01:31:25;;;;;;;4.95;1.80;;;10.70;59.50;;;9.94;46.29;99893.06;5028647;28;20037;-83
2023/03/17 01:33:52;;;;;;;3.63;1.90;;;10.70;59.00;;;9.95;46.51;99881.38;5038444;28;20051;-83
2023/03/17 01:36:20;;;;;;;4.63;1.80;;;10.70;59.30;;;9.96;46.26;99883.84;5054815;28;20041;-83
2023/03/17 01:38:49;;;;;;;3.50;1.90;;;10.70;59.10;;;9.97;46.88;99871.31;5068454;28;20090;-84
2023/03/17 01:41:17;;;;;;;4.35;1.67;;;10.70;59.80;;;9.95;46.98;99865.38;5053741;28;20509;-84
2023/03/17 01:43:46;;;;;;;5.28;2.17;;;10.70;59.70;;;9.95;46.72;99868.06;5046977;28;20091;-83
2023/03/17 01:46:28;;;;;;;3.88;2.03;;;10.70;59.50;;;9.94;46.49;99863.78;5043595;28;20055;-83
2023/03/17 01:49:16;;;;;;;4.50;2.10;;;10.70;59.40;;;9.94;46.72;99847.78;5046502;28;20055;-84
2023/03/17 01:51:59;;;;;;;6.53;2.00;;;10.70;59.50;;;9.92;47.01;99834.69;5035072;28;20046;-83
2023/03/17 01:54:35;;;;;;;5.97;2.10;;;10.70;59.80;;;9.91;46.98;99829.59;5035680;28;20099;-83
2023/03/17 01:57:09;;;;;;;3.90;1.85;;;10.70;60.00;;;9.92;46.68;99828.56;5053009;28;20492;-83
2023/03/17 01:59:44;;;;;;;4.97;1.73;;;10.70;59.70;;;9.91;47.01;99826.94;5041854;28;20081;-83
2023/03/17 02:02:18;;;;;;;4.93;1.80;;;10.70;59.80;;;9.90;46.94;99825.28;5042105;28;20042;-83
2023/03/17 02:04:45;;;;;;;7.13;2.05;;;10.70;59.90;;;9.90;46.96;99822.63;5036908;28;20040;-84
2023/03/17 02:07:14;;;;;;;6.10;2.33;;;10.70;60.00;;;9.90;46.63;99827.94;5049498;28;20114;-84
2023/03/17 02:09:43;;;;;;;4.93;2.17;;;10.60;59.50;;;9.88;46.57;99824.72;5047320;28;20049;-83
2023/03/17 02:12:12;;;;;;;7.45;2.40;;;10.60;59.30;;;9.85;46.55;99825.94;5045046;28;20041;-84
2023/03/17 02:14:41;;;;;;;5.22;2.05;;;10.60;59.30;;;9.83;46.77;99813.91;5040394;28;20495;-83
2023/03/17 02:17:08;;;;;;;4.03;2.00;;;10.60;59.50;;;9.84;46.57;99815.53;5053685;28;20771;-83
2023/03/17 02:19:36;;;;;;;5.60;2.25;;;10.60;59.30;;;9.85;46.64;99817.16;5049506;28;20041;-84
2023/03/17 02:22:04;;;;;;;8.43;2.95;;;10.60;59.40;;;9.84;46.28;99824.34;5037099;28;20419;-83
2023/03/17 02:24:37;;;;;;;5.18;2.28;;;10.60;59.00;;;9.84;46.84;99829.66;5043981;28;20048;-83
2023/03/17 02:27:12;;;;;;;5.53;2.38;;;10.60;59.50;;;9.87;47.21;99828.41;5060780;28;20169;-83
2023/03/17 02:29:39;;;;;;;4.18;2.17;;;10.60;60.00;;;9.87;47.05;99831.88;5066912;28;20052;-83
2023/03/17 02:32:09;;;;;;;4.65;2.10;;;10.60;59.80;;;9.88;46.89;99822.03;5030382;28;20523;-83
2023/03/17 02:34:37;;;;;;;4.68;2.10;;;10.70;60.00;;;9.89;46.73;99821.81;5038437;28;20041;-84
2023/03/17 02:37:07;;;;;;;4.63;2.17;;;10.60;59.50;;;9.89;47.32;99823.66;5047068;28;20537;-84
2023/03/17 02:39:35;;;;;;;4.53;2.30;;;10.60;60.30;;;9.89;47.16;99818.34;5041789;28;20056;-83
2023/03/17 02:42:03;;;;;;;5.10;2.38;;;10.60;59.70;;;9.89;47.16;99791.72;5049793;28;20045;-84
2023/03/17 02:44:30;;;;;;;6.03;2.00;;;10.60;60.00;;;9.88;47.27;99795.41;5050935;28;20106;-83
2023/03/17 02:46:57;;;;;;;5.35;2.22;;;10.60;60.20;;;9.87;46.99;99788.47;5055841;28;20044;-84
2023/03/17 02:49:26;;;;;;;5.80;2.30;;;10.60;60.00;;;9.88;47.14;99795.41;5059331;28;20528;-84
2023/03/17 02:51:53;;;;;;;7.35;2.17;;;10.60;60.10;;;9.85;46.73;99801.19;5050128;28;20515;-83
2023/03/17 02:54:22;;;;;;;6.15;2.00;;;10.60;59.50;;;9.87;46.69;99815.91;5044834;28;20037;-83
2023/03/17 02:56:49;;;;;;;6.00;2.08;;;10.60;59.30;;;9.86;47.01;99816.94;5040624;28;20044;-83
2023/03/17 02:59:16;;;;;;;4.85;2.20;;;10.60;59.70;;;9.87;46.65;99812.44;5041933;28;20578;-83
2023/03/17 03:01:43;;;;;;;6.22;2.25;;;10.60;59.30;;;9.85;46.79;99812.63;5041070;28;20556;-83
2023/03/17 03:04:12;;;;;;;4.68;2.15;;;10.60;59.50;;;9.86;46.76;99813.44;5050440;28;20045;-83
2023/03/17 03:06:44;;;;;;;4.68;2.00;;;10.60;59.50;;;9.85;46.96;99819.81;5054776;28;20597;-83
2023/03/17 03:09:12;;;;;;;4.18;2.10;;;10.60;59.90;;;9.86;47.08;99813.44;5037835;28;20124;-84
2023/03/17 03:11:41;;;;;;;5.68;2.60;;;10.60;60.20;;;9.85;47.39;99812.63;5042083;28;20047;-83
2023/03/17 03:14:08;;;;;;;3.58;1.70;;;10.60;60.40;;;9.86;47.53;99821.44;5046000;28;20052;-84
2023/03/17 03:16:36;;;;;;;6.85;2.35;;;10.60;60.50;;;9.85;47.56;99814.50;5047415;28;20041;-83
2023/03/17 03:19:03;;;;;;;4.07;2.15;;;10.60;60.90;;;9.87;47.54;99823.09;5031039;28;20069;-83
2023/03/17 03:21:30;;;;;;;6.00;2.20;;;10.60;60.70;;;9.85;47.35;99814.50;5040807;28;20409;-84
2023/03/17 03:23:57;;;;;;;5.05;2.10;;;10.60;60.30;;;9.85;47.03;99811.81;5044671;28;20045;-84
2023/03/17 03:26:25;;;;;;;4.13;2.25;;;10.60;60.10;;;9.84;46.64;99805.69;5046575;28;20053;-83
2023/03/17 03:28:56;;;;;;;4.93;1.90;;;10.60;59.50;;;9.85;46.99;99807.31;5034999;28;20048;-83
2023/03/17 03:31:23;;;;;;;6.78;2.33;;;10.60;60.00;;;9.82;46.57;99796.31;5049114;28;20515;-84
2023/03/17 03:33:50;;;;;;;3.63;1.85;;;10.60;59.50;;;9.82;46.93;99805.13;5046964;28;20045;-83
2023/03/17 03:36:18;;;;;;;4.30;2.08;;;10.60;59.90;;;9.79;46.97;99814.34;5056244;28;20056;-83
2023/03/17 03:38:45;;;;;;;4.10;2.10;;;10.60;60.00;;;9.81;46.50;99806.16;5054671;28;20103;-84
2023/03/17 03:41:13;;;;;;;4.75;2.03;;;10.60;59.30;;;9.80;47.16;99810.63;5045469;28;20049;-83
2023/03/17 03:43:41;;;;;;;4.18;2.15;;;10.60;60.30;;;9.80;47.27;99812.50;5048541;28;20110;-84
2023/03/17 03:46:09;;;;;;;4.85;2.10;;;10.50;60.30;;;9.81;47.67;99803.50;5034874;28;20045;-83
2023/03/17 03:48:36;;;;;;;5.00;1.95;;;10.50;60.60;;;9.80;47.05;99809.81;5032647;28;20513;-83
2023/03/17 03:51:04;;;;;;;4.53;2.20;;;10.50;60.20;;;9.81;47.68;99798.16;5056159;28;20067;-83
2023/03/17 03:53:31;;;;;;;5.05;2.00;;;10.50;60.80;;;9.82;47.11;99801.63;5056055;28;20045;-83
2023/03/17 03:55:58;;;;;;;5.75;2.30;;;10.50;60.00;;;9.80;47.29;99799.97;5039622;28;20049;-83
2023/03/17 03:58:26;;;;;;;3.65;1.88;;;10.50;60.60;;;9.79;46.96;99790.38;5032944;28;20045;-83
2023/03/17 04:00:53;;;;;;;7.03;2.28;;;10.50;60.00;;;9.79;46.63;99793.03;5031326;28;20041;-84
2023/03/17 04:03:21;;;;;;;4.47;2.00;;;10.50;59.50;;;9.79;46.94;99797.56;5032811;28;20064;-83
2023/03/17 04:05:49;;;;;;;6.13;2.33;;;10.50;59.90;;;9.77;46.75;99808.44;5044056;28;20043;-83
2023/03/17 04:08:16;;;;;;;5.68;2.60;;;10.70;60.00;;;9.77;46.84;99805.78;5058244;28;20453;-83
2023/03/17 04:10:43;;;;;;;4.65;1.98;;;10.50;59.70;;;9.78;46.85;99812.72;5029790;28;20048;-83
2023/03/17 04:13:11;;;;;;;4.63;2.08;;;10.50;59.80;;;9.78;47.22;99810.06;5044140;28;20036;-84
2023/03/17 04:15:38;;;;;;;5.85;2.33;;;10.50;60.30;;;9.78;46.61;99807.41;5048679;28;20055;-83
2023/03/17 04:18:06;;;;;;;5.30;2.20;;;10.50;59.30;;;9.78;46.92;99807.41;5055807;28;20056;-83
2023/03/17 04:20:34;;;;;;;5.88;2.65;;;10.50;59.90;;;9.77;46.80;99805.78;5042299;28;20056;-83
2023/03/17 04:23:01;;;;;;;5.53;2.13;;;10.50;59.60;;;9.76;46.73;99790.00;5044623;28;20514;-83
2023/03/17 04:25:28;;;;;;;4.80;2.10;;;10.50;59.90;;;9.77;47.10;99800.44;5038583;28;20648;-83
2023/03/17 04:27:55;;;;;;;5.63;2.05;;;10.50;60.00;;;9.76;46.91;99798.00;5042347;28;20046;-83
2023/03/17 04:30:23;;;;;;;4.25;1.80;;;10.70;60.00;;;9.76;46.10;99814.81;5041443;28;20056;-83
2023/03/17 04:32:50;;;;;;;4.78;2.28;;;10.50;58.70;;;9.77;46.67;99815.63;5056179;28;20044;-83
2023/03/17 04:35:21;;;;;;;4.35;2.10;;;10.70;59.60;;;9.75;46.90;99807.84;5039946;28;20045;-83
2023/03/17 04:37:50;;;;;;;4.53;2.10;;;10.50;59.60;;;9.78;46.90;99812.72;5033281;28;20045;-83
2023/03/17 04:40:19;;;;;;;4.13;1.98;;;10.50;60.00;;;9.77;46.96;99792.47;5046953;28;20314;-83
2023/03/17 04:42:46;;;;;;;5.03;1.92;;;10.50;59.80;;;9.77;46.96;99800.44;5064043;22;20052;-90
2023/03/17 04:45:15;;;;;;;6.43;2.20;;;10.50;59.90;;;9.76;47.20;99796.16;5069341;28;20041;-90
2023/03/17 04:47:44;;;;;;;5.32;1.98;;;10.50;60.10;;;9.77;46.88;99799.63;5064607;28;20040;-90
2023/03/17 04:50:13;;;;;;;4.70;2.28;;;10.50;59.60;;;9.76;46.61;99805.97;5050539;28;20048;-88
2023/03/17 04:52:41;;;;;;;4.35;2.03;;;10.50;59.60;;;9.77;46.99;99805.78;5031583;28;20044;-88
2023/03/17 04:55:11;;;;;;;6.85;2.40;;;10.50;60.00;;;9.77;47.11;99811.09;5067332;28;20044;-89
2023/03/17 04:57:40;;;;;;;5.30;2.17;;;10.50;60.10;;;9.76;46.81;99803.31;5041066;28;20072;-89
2023/03/17 05:00:11;;;;;;;6.10;2.03;;;10.50;59.70;;;9.75;46.19;99813.16;5068606;28;20055;-87
2023/03/17 05:02:38;;;;;;;3.90;2.00;;;10.50;58.90;;;9.75;46.49;99815.81;5066514;28;20499;-87
2023/03/17 05:05:06;;;;;;;4.75;2.10;;;10.50;59.30;;;9.73;46.26;99809.91;5064457;28;20101;-83
2023/03/17 05:07:33;;;;;;;6.35;2.40;;;10.50;59.00;;;9.73;46.60;99809.91;5050782;28;20041;-82
2023/03/17 05:10:00;;;;;;;4.45;1.88;;;10.50;59.50;;;9.74;46.65;99805.41;5069036;28;20048;-85
2023/03/17 05:12:29;;;;;;;4.50;2.25;;;10.50;59.50;;;9.73;46.42;99809.09;5063372;28;20041;-85
2023/03/17 05:14:56;;;;;;;5.55;2.40;;;10.50;59.30;;;9.72;46.22;99802.97;5068916;28;20044;-86
2023/03/17 05:17:23;;;;;;;5.80;2.28;;;10.50;58.80;;;9.72;46.09;99800.31;5065850;28;20051;-84
2023/03/17 05:19:51;;;;;;;4.93;2.15;;;10.50;58.70;;;9.74;46.73;99800.88;5066441;28;20052;-84
2023/03/17 05:22:18;;;;;;;6.72;2.10;;;10.50;59.50;;;9.75;46.90;99796.38;5054576;28;20040;-84
2023/03/17 05:24:46;;;;;;;5.18;2.10;;;10.60;59.80;;;9.76;46.79;99803.31;5063824;28;20515;-85
2023/03/17 05:27:13;;;;;;;5.63;2.10;;;10.50;59.60;;;9.76;46.64;99808.63;5058665;28;20524;-85
2023/03/17 05:29:42;;;;;;;4.68;2.38;;;10.50;59.40;;;9.73;46.56;99807.25;5063388;28;20037;-83
2023/03/17 05:32:09;;;;;;;4.10;2.20;;;10.50;59.50;;;9.70;46.00;99802.34;5063854;28;20098;-83
2023/03/17 05:34:36;;;;;;;5.32;2.30;;;10.50;58.80;;;9.73;46.72;99801.13;5064713;28;20041;-84
2023/03/17 05:37:03;;;;;;;6.65;2.13;;;10.50;59.50;;;9.72;46.24;99804.81;5068596;28;20481;-83
2023/03/17 05:39:30;;;;;;;4.22;1.90;;;10.50;59.00;;;9.71;46.34;99796.03;5065065;28;20044;-83
2023/03/17 05:41:57;;;;;;;5.43;2.33;;;10.50;59.30;;;9.72;46.58;99797.66;5069589;28;20040;-84
2023/03/17 05:44:25;;;;;;;5.20;2.30;;;10.60;59.30;;;9.71;46.74;99801.34;5070338;28;20045;-84
2023/03/17 05:46:54;;;;;;;4.88;2.10;;;10.40;59.50;;;9.71;46.55;99806.66;5071606;28;20046;-84
2023/03/17 05:49:21;;;;;;;5.70;2.10;;;10.50;59.40;;;9.72;46.50;99802.97;5062839;28;20048;-84
2023/03/17 05:51:48;;;;;;;5.53;1.70;;;10.40;59.20;;;9.73;46.90;99803.78;5068334;28;20037;-84
2023/03/17 05:54:15;;;;;;;4.28;2.05;;;10.50;59.70;;;9.73;47.21;99804.59;5065701;28;20115;-84
2023/03/17 05:56:42;;;;;;;5.85;2.05;;;10.40;60.20;;;9.75;47.28;99813.16;5064668;28;20048;-84
2023/03/17 05:59:13;;;;;;;4.70;2.45;;;10.40;60.20;;;9.74;47.45;99800.88;5071600;28;20040;-84
2023/03/17 06:01:41;;;;;;;5.32;2.03;;;10.50;60.70;;;9.75;48.19;99805.16;5068256;28;20040;-85
2023/03/17 06:04:09;;;;;;;5.25;2.17;;;10.50;61.60;;;9.74;47.99;99800.88;5068623;28;20048;-82
2023/03/17 06:06:37;;;;;;;6.63;2.28;;;10.60;61.40;;;9.74;47.64;99800.88;5063232;28;20041;-82
2023/03/17 06:09:05;;;;;;;6.03;2.30;;;10.50;60.90;;;9.72;47.31;99797.66;5052914;28;20062;-81
2023/03/17 06:11:32;;;;;;;5.72;2.17;;;10.40;60.40;;;9.72;47.51;99787.00;5067684;28;20037;-82
2023/03/17 06:14:00;;;;;;;6.97;2.15;;;10.50;60.80;;;9.70;47.22;99789.03;5070106;28;20078;-80
2023/03/17 06:16:29;;;;;;;5.10;2.30;;;10.70;60.40;;;9.71;47.34;99790.69;5069765;28;20032;-81
2023/03/17 06:18:56;;;;;;;4.82;2.38;;;10.50;60.60;;;9.73;47.52;99796.59;5064672;28;20047;-81
2023/03/17 06:21:26;;;;;;;5.03;2.25;;;10.50;60.80;;;9.72;47.72;99794.97;5066442;28;20037;-81
2023/03/17 06:23:53;;;;;;;4.78;2.00;;;10.40;60.80;;;9.73;47.68;99793.94;5057879;28;20041;-82
2023/03/17 06:26:20;;;;;;;5.28;1.83;;;10.50;61.00;;;9.72;47.76;99794.97;5060585;28;20099;-78
2023/03/17 06:28:47;;;;;;;5.20;2.60;;;10.50;61.00;;;9.71;47.17;99801.34;5066668;28;20044;-79
2023/03/17 06:31:15;;;;;;;5.00;1.73;;;10.40;60.20;;;9.72;47.21;99786.19;5070751;28;20062;-80
2023/03/17 06:33:42;;;;;;;5.45;2.28;;;10.40;60.20;;;9.73;47.10;99788.63;5068007;28;20146;-78
2023/03/17 06:36:10;;;;;;;5.53;2.60;;;10.50;60.00;;;9.73;47.16;99780.63;5060393;28;20123;-79
2023/03/17 06:38:38;;;;;;;5.22;1.92;;;10.50;60.20;;;9.75;47.08;99785.72;5055552;28;20568;-79
2023/03/17 06:41:06;;;;;;;5.63;2.33;;;10.50;60.10;;;9.77;47.37;99791.66;5070053;28;20467;-79
2023/03/17 06:43:33;;;;;;;4.45;2.08;;;10.50;60.50;;;9.77;47.37;99791.66;5069297;28;20048;-79
2023/03/17 06:46:01;;;;;;;5.32;2.10;;;10.60;60.30;;;9.80;47.48;99791.19;5069217;28;20036;-79
2023/03/17 06:48:28;;;;;;;4.90;2.22;;;10.50;60.60;;;9.82;47.39;99791.78;5071315;28;20044;-79
2023/03/17 06:50:55;;;;;;;6.93;2.40;;;10.60;60.50;;;9.84;47.58;99794.22;5070113;28;20048;-79
2023/03/17 06:53:23;;;;;;;5.15;2.03;;;10.60;60.70;;;9.88;47.67;99787.41;5068958;28;20044;-79
2023/03/17 06:55:51;;;;;;;6.93;2.70;;;10.70;60.70;;;9.93;47.21;99787.56;5052062;28;20041;-79
2023/03/17 06:58:19;;;;;;;5.30;2.10;;;10.70;60.20;;;9.98;47.52;99785.03;5066636;28;20049;-79
2023/03/17 07:00:47;;;;;;;5.50;2.30;;;10.80;60.30;;;10.04;47.57;99782.28;5049923;28;20044;-79
2023/03/17 07:03:15;;;;;;;5.35;2.50;;;10.80;60.50;;;10.10;47.40;99779.75;5069594;28;20056;-79
2023/03/17 07:05:43;;;;;;;8.57;2.85;;;10.90;60.30;;;10.14;47.78;99783.59;5069571;28;20051;-79
2023/03/17 07:08:10;;;;;;;8.63;2.40;;;10.90;60.70;;;10.18;46.69;99796.25;5057488;28;20079;-79
2023/03/17 07:10:38;;;;;;;8.65;2.88;;;11.00;59.40;;;10.25;47.08;99794.38;5068423;28;20128;-79
2023/03/17 07:13:07;;;;;;;6.07;2.67;;;11.00;59.60;;;10.31;46.77;99796.13;5070150;28;20036;-79
2023/03/17 07:15:36;;;;;;;7.90;2.78;;;11.10;59.40;;;10.39;46.88;99786.97;5069989;28;20056;-79
2023/03/17 07:18:03;;;;;;;7.20;3.15;;;11.20;59.70;;;10.45;47.22;99790.59;5067516;28;20040;-79
2023/03/17 07:20:31;;;;;;;10.02;3.50;;;11.30;60.00;;;10.52;47.29;99791.31;5065685;28;20140;-79
2023/03/17 07:22:58;;;;;;;14.75;4.30;;;11.30;60.20;;;10.60;47.23;99787.53;5062744;28;20040;-80
2023/03/17 07:25:25;;;;;;;6.43;2.90;;;11.40;59.90;;;10.62;47.00;99786.25;5070598;28;20050;-79
2023/03/17 07:27:52;;;;;;;6.10;2.55;;;11.40;59.60;;;10.70;46.60;99788.59;5069620;28;20055;-79
2023/03/17 07:30:21;;;;;;;5.55;2.20;;;11.50;59.10;;;10.78;46.60;99782.94;5065172;28;20044;-79
2023/03/17 07:32:49;;;;;;;5.50;2.25;;;11.60;59.20;;;10.85;46.99;99788.16;5067079;28;20032;-79
2023/03/17 07:35:19;;;;;;;5.10;2.17;;;11.60;59.50;;;10.95;46.92;99790.25;5059931;28;20045;-79
2023/03/17 07:37:47;;;;;;;9.02;2.42;;;11.80;59.30;;;11.04;46.27;99788.88;5062847;28;20045;-79
2023/03/17 07:40:14;;;;;;;10.43;2.20;;;11.80;58.50;;;11.11;45.83;99794.09;5066256;28;20051;-80
2023/03/17 07:42:42;;;;;;;7.20;2.40;;;11.90;58.00;;;11.16;46.40;99796.88;5068808;28;20083;-80
2023/03/17 07:45:10;;;;;;;7.15;2.40;;;11.90;58.70;;;11.21;46.57;99783.66;5046630;28;20102;-80
2023/03/17 07:47:39;;;;;;;5.13;1.90;;;12.00;59.10;;;11.28;46.13;99790.50;5045017;28;20048;-80
2023/03/17 07:50:07;;;;;;;5.47;2.65;;;12.10;58.30;;;11.32;46.51;99788.16;5066059;28;20079;-80
2023/03/17 07:52:34;;;;;;;5.05;2.08;;;12.10;58.70;;;11.39;46.12;99785.38;5070057;28;20050;-80
2023/03/17 07:55:01;;;;;;;6.03;1.98;;;12.20;58.20;;;11.46;45.79;99780.72;5056762;28;20062;-80
2023/03/17 07:57:29;;;;;;;5.50;2.10;;;12.30;57.90;;;11.51;46.02;99783.50;5067365;28;20044;-80
2023/03/17 07:59:56;;;;;;;5.65;2.60;;;12.30;58.10;;;11.54;46.06;99775.84;5067469;28;20044;-80
2023/03/17 08:02:23;;;;;;;5.70;3.10;;;12.40;58.10;;;11.62;45.67;99776.56;5068087;28;20149;-80
2023/03/17 08:04:52;;;;;;;4.50;2.40;;;12.40;57.50;;;11.64;45.66;99774.44;5060608;28;20040;-80
2023/03/17 08:07:19;;;;;;;8.10;2.30;;;12.50;57.70;;;11.68;46.42;99768.41;5060844;28;20586;-81
2023/03/17 08:09:47;;;;;;;3.97;1.90;;;12.50;58.50;;;11.67;45.70;99771.31;5066457;28;20044;-81
2023/03/17 08:12:14;;;;;;;5.35;2.05;;;12.50;57.50;;;11.70;45.78;99776.97;5061218;28;20040;-81
2023/03/17 08:14:41;;;;;;;5.72;2.47;;;12.60;57.70;;;11.73;45.81;99786.38;5068332;28;20040;-81
2023/03/17 08:17:09;;;;;;;4.35;2.20;;;12.60;57.70;;;11.76;46.48;99783.22;5063747;28;20040;-81
2023/03/17 08:19:36;;;;;;;6.88;2.50;;;12.60;58.50;;;11.75;45.57;99784.28;5059644;28;20072;-81
2023/03/17 08:22:05;;;;;;;5.95;3.00;;;12.70;57.50;;;11.74;45.61;99788.81;5063164;28;20040;-81
2023/03/17 08:24:33;;;;;;;7.32;2.35;;;12.60;57.50;;;11.77;46.11;99783.00;5068988;28;20048;-81
2023/03/17 08:27:00;;;;;;;5.63;2.78;;;12.60;58.00;;;11.78;45.34;99789.97;5066190;28;20056;-81
2023/03/17 08:29:27;;;;;;;5.38;2.47;;;12.60;57.10;;;11.78;45.50;99792.66;5065431;28;20052;-81
2023/03/17 08:31:55;;;;;;;10.43;2.75;;;12.70;57.30;;;11.79;46.06;99791.59;5067430;28;20043;-81
2023/03/17 08:34:23;;;;;;;5.70;2.30;;;12.70;57.90;;;11.81;45.84;99797.53;5063664;28;20045;-81
2023/03/17 08:36:51;;;;;;;7.32;2.10;;;12.70;57.90;;;11.86;45.28;99799.53;5061055;28;20040;-81
2023/03/17 08:39:20;;;;;;;8.50;2.38;;;12.70;57.10;;;11.87;45.84;99809.16;5067417;28;20135;-81
2023/03/17 08:41:47;;;;;;;5.57;2.10;;;12.70;57.90;;;11.89;45.43;99803.56;5055889;28;20062;-81
2023/03/17 08:44:15;;;;;;;6.32;2.30;;;12.80;57.10;;;11.91;45.87;99810.31;5063172;28;20163;-81
2023/03/17 08:46:42;;;;;;;6.80;2.25;;;12.80;57.70;;;11.91;45.28;99799.63;5066402;28;20115;-81
2023/03/17 08:49:11;;;;;;;5.60;2.10;;;12.80;56.90;;;11.95;44.86;99794.59;5056349;28;20048;-81
2023/03/17 08:51:39;;;;;;;4.47;2.30;;;12.80;56.50;;;11.95;45.01;99799.94;5066468;28;20071;-81
2023/03/17 08:54:07;;;;;;;6.00;2.25;;;12.80;56.30;;;11.96;45.62;99798.94;5055864;28;20114;-81
2023/03/17 08:56:36;;;;;;;8.70;1.98;;;12.80;57.30;;;11.98;45.52;99804.84;5068393;28;20063;-81
2023/03/17 08:59:05;;;;;;;5.78;2.33;;;12.90;57.30;;;11.99;44.86;99812.59;5039447;28;20064;-81
2023/03/17 09:01:33;;;;;;;5.32;2.35;;;12.90;56.50;;;12.01;46.06;99804.38;5064305;28;20044;-80
2023/03/17 09:04:01;;;;;;;5.35;2.30;;;12.90;57.90;;;12.04;44.80;99794.00;5064048;28;20044;-81
2023/03/17 09:06:29;;;;;;;5.72;2.05;;;12.90;56.40;;;12.06;45.42;99785.75;5066965;28;20052;-81
2023/03/17 09:08:56;;;;;;;5.88;2.17;;;12.90;57.30;;;12.06;45.49;99794.59;5068919;28;20036;-81
2023/03/17 09:11:26;;;;;;;6.40;2.17;;;12.90;56.90;;;12.09;45.30;99788.75;5079002;28;20036;-81
2023/03/17 09:13:55;;;;;;;9.02;2.53;;;12.90;57.10;;;12.13;45.30;99791.75;5067805;28;20051;-81
2023/03/17 09:16:23;;;;;;;5.88;2.60;;;13.00;57.10;;;12.14;45.98;99788.03;5067922;28;20472;-81
2023/03/17 09:18:51;;;;;;;5.53;2.45;;;13.00;57.70;;;12.15;45.10;99779.00;5058537;28;20063;-81
2023/03/17 09:21:18;;;;;;;5.10;2.28;;;13.00;56.70;;;12.17;44.67;99781.41;5063455;28;20059;-79
2023/03/17 09:23:46;;;;;;;8.77;2.10;;;13.00;55.90;;;12.19;45.62;99790.00;5067833;28;20071;-79
2023/03/17 09:26:13;;;;;;;7.57;2.45;;;13.00;57.30;;;12.24;46.48;99792.75;5063223;28;20048;-80
2023/03/17 09:28:41;;;;;;;6.90;2.10;;;13.10;58.40;;;12.32;45.49;99789.72;5067521;28;20075;-79
2023/03/17 09:31:12;;;;;;;5.55;1.90;;;13.10;57.40;;;12.35;46.54;99789.25;5066496;28;20041;-79
2023/03/17 09:33:40;;;;;;;5.15;2.00;;;13.20;58.50;;;12.42;46.33;99789.91;5064373;28;20497;-80
2023/03/17 09:36:08;;;;;;;6.45;2.17;;;13.30;58.30;;;12.49;45.66;99803.13;5050828;28;20055;-80
2023/03/17 09:38:36;;;;;;;5.05;2.20;;;13.30;57.30;;;12.52;45.45;99800.78;5059283;28;20052;-81
2023/03/17 09:41:24;;;;;;;8.48;2.33;;;13.40;57.30;;;12.60;45.77;99802.28;5064785;28;20438;-80
2023/03/17 09:44:06;;;;;;;7.63;2.63;;;13.40;57.30;;;12.72;44.76;99807.53;5057038;28;20033;-78
2023/03/17 09:46:48;;;;;;;7.30;2.30;;;13.50;56.10;;;12.79;45.65;99805.53;5060448;28;20072;-84
2023/03/17 09:49:21;;;;;;;6.10;2.17;;;13.60;57.20;;;12.85;45.07;99785.84;5064152;28;20102;-91
2023/03/17 09:51:51;;;;;;;6.55;2.10;;;13.70;56.50;;;12.93;45.19;99785.41;5042303;28;20140;-92
2023/03/17 09:54:26;;;;;;;8.90;2.03;;;13.80;56.90;;;13.00;45.62;99774.56;5046034;28;20094;-93
2023/03/17 09:57:03;;;;;;;4.20;2.17;;;13.90;57.10;;;13.14;43.88;99776.66;5053558;28;20044;-94
2023/03/17 09:59:34;;;;;;;6.80;2.42;;;14.00;55.10;;;13.23;45.29;99770.94;5064692;28;20606;-94
2023/03/17 10:02:03;;;;;;;15.23;2.60;;;14.00;56.50;;;13.29;45.25;99773.41;5052195;28;20044;-95
2023/03/17 10:04:30;;;;;;;5.30;2.05;;;14.10;56.70;;;13.35;44.80;99775.09;5051171;28;20053;-93
2023/03/17 10:07:04;;;;;;;8.07;2.25;;;14.20;56.10;;;13.41;44.54;99775.97;5033896;28;20144;-93
2023/03/17 10:09:39;;;;;;;5.03;2.15;;;14.30;55.50;;;13.42;44.33;99782.16;5070842;28;20127;-94
2023/03/17 10:12:15;;;;;;;6.03;2.30;;;14.30;55.30;;;13.44;44.61;99788.09;5063727;28;20045;-95
2023/03/17 10:14:56;;;;;;;5.20;2.15;;;14.30;55.80;;;13.46;44.26;99784.09;5070327;28;20224;-95
2023/03/17 10:17:30;;;;;;;5.75;2.40;;;14.30;55.60;;;13.55;44.23;99781.81;5070665;28;20047;-95
2023/03/17 10:20:07;;;;;;;5.53;2.70;;;14.40;55.20;;;13.62;44.55;99779.78;5066637;28;20040;-93
2023/03/17 11:20:46;;;;;;;8.85;2.20;;;14.80;55.50;;;14.05;44.75;99746.75;2526738;22;20053;-82
2023/03/17 11:23:30;;;;;;;5.68;2.25;;;14.90;56.00;;;14.14;44.94;99741.75;5066781;28;20052;-81
2023/03/17 11:26:09;;;;;;;7.03;2.00;;;15.00;55.90;;;14.14;44.10;99739.06;5065666;28;20121;-81
2023/03/17 11:28:40;;;;;;;7.30;2.80;;;15.00;54.70;;;14.24;43.80;99741.84;5041617;28;20052;-81